sensor_id;sensor_type;location;lat;lon;timestamp;P1;durP1;ratioP1;P2;durP2;ratioP2
37019;SDS011;22932;52.442;16.896;2022-08-03T00:01:54;4.90;;;4.50;;
37019;SDS011;22932;52.442;16.896;2022-08-03T00:04:23;5.00;;;4.50;;
37019;SDS011;22932;52.442;16.896;2022-08-03T00:06:52;5.30;;;4.80;;
37019;SDS011;22932;52.442;16.896;2022-08-03T00:09:21;5.30;;;4.60;;
37019;SDS011;22932;52.442;16.896;2022-08-03T00:11:51;4.70;;;4.30;;
37019;SDS011;22932;52.442;16.896;2022-08-03T00:14:20;5.10;;;4.80;;
37019;SDS011;22932;52.442;16.896;2022-08-03T00:16:49;5.10;;;4.60;;
37019;SDS011;22932;52.442;16.896;2022-08-03T00:19:18;5.20;;;4.60;;
37019;SDS011;22932;52.442;16.896;2022-08-03T00:21:48;5.30;;;4.80;;
37019;SDS011;22932;52.442;16.896;2022-08-03T00:24:17;6.40;;;4.90;;
37019;SDS011;22932;52.442;16.896;2022-08-03T00:26:46;5.00;;;4.50;;
37019;SDS011;22932;52.442;16.896;2022-08-03T00:29:16;4.90;;;4.50;;
37019;SDS011;22932;52.442;16.896;2022-08-03T00:31:45;4.80;;;4.40;;
37019;SDS011;22932;52.442;16.896;2022-08-03T00:34:14;5.20;;;4.70;;
37019;SDS011;22932;52.442;16.896;2022-08-03T00:36:43;6.70;;;4.60;;
37019;SDS011;22932;52.442;16.896;2022-08-03T00:39:12;5.30;;;4.40;;
37019;SDS011;22932;52.442;16.896;2022-08-03T00:41:42;4.90;;;4.40;;
37019;SDS011;22932;52.442;16.896;2022-08-03T00:44:11;5.20;;;4.60;;
37019;SDS011;22932;52.442;16.896;2022-08-03T00:46:40;5.50;;;5.00;;
37019;SDS011;22932;52.442;16.896;2022-08-03T00:49:09;5.40;;;4.90;;
37019;SDS011;22932;52.442;16.896;2022-08-03T00:51:39;5.60;;;5.10;;
37019;SDS011;22932;52.442;16.896;2022-08-03T00:54:08;5.60;;;5.10;;
37019;SDS011;22932;52.442;16.896;2022-08-03T00:56:37;6.80;;;5.30;;
37019;SDS011;22932;52.442;16.896;2022-08-03T00:59:07;5.70;;;5.20;;
37019;SDS011;22932;52.442;16.896;2022-08-03T01:01:37;6.90;;;5.20;;
37019;SDS011;22932;52.442;16.896;2022-08-03T01:04:07;5.30;;;4.90;;
37019;SDS011;22932;52.442;16.896;2022-08-03T01:06:40;5.40;;;4.70;;
37019;SDS011;22932;52.442;16.896;2022-08-03T01:09:17;5.80;;;5.20;;
37019;SDS011;22932;52.442;16.896;2022-08-03T01:11:52;6.00;;;5.50;;
37019;SDS011;22932;52.442;16.896;2022-08-03T01:14:29;5.40;;;4.80;;
37019;SDS011;22932;52.442;16.896;2022-08-03T01:17:07;6.20;;;5.60;;
37019;SDS011;22932;52.442;16.896;2022-08-03T01:19:47;6.10;;;5.30;;
37019;SDS011;22932;52.442;16.896;2022-08-03T01:22:45;5.20;;;4.90;;
37019;SDS011;22932;52.442;16.896;2022-08-03T01:25:30;6.00;;;5.20;;
37019;SDS011;22932;52.442;16.896;2022-08-03T01:28:11;5.90;;;5.30;;
37019;SDS011;22932;52.442;16.896;2022-08-03T01:30:51;5.30;;;4.90;;
37019;SDS011;22932;52.442;16.896;2022-08-03T01:33:30;5.70;;;5.10;;
37019;SDS011;22932;52.442;16.896;2022-08-03T01:36:06;5.70;;;5.10;;
37019;SDS011;22932;52.442;16.896;2022-08-03T01:38:40;5.70;;;5.10;;
37019;SDS011;22932;52.442;16.896;2022-08-03T01:41:14;5.30;;;4.90;;
37019;SDS011;22932;52.442;16.896;2022-08-03T01:43:48;5.70;;;5.20;;
37019;SDS011;22932;52.442;16.896;2022-08-03T01:46:19;5.90;;;5.50;;
37019;SDS011;22932;52.442;16.896;2022-08-03T01:48:51;6.00;;;5.40;;
37019;SDS011;22932;52.442;16.896;2022-08-03T01:51:21;6.30;;;5.00;;
37019;SDS011;22932;52.442;16.896;2022-08-03T01:53:50;6.40;;;5.80;;
37019;SDS011;22932;52.442;16.896;2022-08-03T01:56:22;6.50;;;5.90;;
37019;SDS011;22932;52.442;16.896;2022-08-03T01:58:53;5.70;;;5.20;;
37019;SDS011;22932;52.442;16.896;2022-08-03T02:01:25;6.00;;;5.40;;
37019;SDS011;22932;52.442;16.896;2022-08-03T02:03:56;5.70;;;5.20;;
37019;SDS011;22932;52.442;16.896;2022-08-03T02:06:28;6.50;;;5.30;;
37019;SDS011;22932;52.442;16.896;2022-08-03T02:09:00;6.20;;;5.20;;
37019;SDS011;22932;52.442;16.896;2022-08-03T02:13:59;6.40;;;5.50;;
37019;SDS011;22932;52.442;16.896;2022-08-03T02:16:31;6.10;;;5.50;;
37019;SDS011;22932;52.442;16.896;2022-08-03T02:19:04;6.40;;;5.80;;
37019;SDS011;22932;52.442;16.896;2022-08-03T02:21:36;6.10;;;5.60;;
37019;SDS011;22932;52.442;16.896;2022-08-03T02:24:06;5.80;;;5.30;;
37019;SDS011;22932;52.442;16.896;2022-08-03T02:26:35;6.40;;;5.80;;
37019;SDS011;22932;52.442;16.896;2022-08-03T02:29:09;5.90;;;5.40;;
37019;SDS011;22932;52.442;16.896;2022-08-03T02:31:41;5.80;;;5.40;;
37019;SDS011;22932;52.442;16.896;2022-08-03T02:34:13;5.80;;;5.40;;
37019;SDS011;22932;52.442;16.896;2022-08-03T02:36:45;6.00;;;5.50;;
37019;SDS011;22932;52.442;16.896;2022-08-03T02:39:18;7.60;;;6.60;;
37019;SDS011;22932;52.442;16.896;2022-08-03T02:41:51;5.90;;;5.50;;
37019;SDS011;22932;52.442;16.896;2022-08-03T02:44:28;7.30;;;6.30;;
37019;SDS011;22932;52.442;16.896;2022-08-03T02:47:00;7.00;;;6.30;;
37019;SDS011;22932;52.442;16.896;2022-08-03T02:49:32;6.60;;;6.00;;
37019;SDS011;22932;52.442;16.896;2022-08-03T02:52:03;6.30;;;5.70;;
37019;SDS011;22932;52.442;16.896;2022-08-03T02:54:35;6.90;;;6.30;;
37019;SDS011;22932;52.442;16.896;2022-08-03T02:57:06;7.10;;;6.40;;
37019;SDS011;22932;52.442;16.896;2022-08-03T02:59:37;7.50;;;6.30;;
37019;SDS011;22932;52.442;16.896;2022-08-03T03:02:09;7.00;;;6.50;;
37019;SDS011;22932;52.442;16.896;2022-08-03T03:04:40;6.70;;;6.20;;
37019;SDS011;22932;52.442;16.896;2022-08-03T03:07:11;7.20;;;6.60;;
37019;SDS011;22932;52.442;16.896;2022-08-03T03:09:41;6.40;;;5.90;;
37019;SDS011;22932;52.442;16.896;2022-08-03T03:12:12;7.50;;;6.40;;
37019;SDS011;22932;52.442;16.896;2022-08-03T03:14:42;6.90;;;6.40;;
37019;SDS011;22932;52.442;16.896;2022-08-03T03:17:11;6.70;;;6.10;;
37019;SDS011;22932;52.442;16.896;2022-08-03T03:19:43;7.50;;;6.80;;
37019;SDS011;22932;52.442;16.896;2022-08-03T03:22:16;7.70;;;6.60;;
37019;SDS011;22932;52.442;16.896;2022-08-03T03:24:46;7.20;;;6.60;;
37019;SDS011;22932;52.442;16.896;2022-08-03T03:27:17;7.60;;;6.90;;
37019;SDS011;22932;52.442;16.896;2022-08-03T03:29:47;7.00;;;6.50;;
37019;SDS011;22932;52.442;16.896;2022-08-03T03:32:17;7.20;;;6.40;;
37019;SDS011;22932;52.442;16.896;2022-08-03T03:34:46;7.40;;;6.90;;
37019;SDS011;22932;52.442;16.896;2022-08-03T03:37:16;7.00;;;6.40;;
37019;SDS011;22932;52.442;16.896;2022-08-03T03:39:45;7.50;;;6.90;;
37019;SDS011;22932;52.442;16.896;2022-08-03T03:42:15;6.60;;;6.10;;
37019;SDS011;22932;52.442;16.896;2022-08-03T03:44:44;6.80;;;6.20;;
37019;SDS011;22932;52.442;16.896;2022-08-03T03:47:13;7.30;;;6.60;;
37019;SDS011;22932;52.442;16.896;2022-08-03T03:49:43;6.80;;;6.20;;
37019;SDS011;22932;52.442;16.896;2022-08-03T03:52:13;7.10;;;6.50;;
37019;SDS011;22932;52.442;16.896;2022-08-03T03:54:43;7.30;;;6.70;;
37019;SDS011;22932;52.442;16.896;2022-08-03T03:57:12;7.20;;;6.70;;
37019;SDS011;22932;52.442;16.896;2022-08-03T03:59:41;6.60;;;6.10;;
37019;SDS011;22932;52.442;16.896;2022-08-03T04:02:11;6.90;;;5.70;;
37019;SDS011;22932;52.442;16.896;2022-08-03T04:04:40;8.10;;;6.90;;
37019;SDS011;22932;52.442;16.896;2022-08-03T04:07:27;7.40;;;6.80;;
37019;SDS011;22932;52.442;16.896;2022-08-03T04:10:22;7.30;;;6.70;;
37019;SDS011;22932;52.442;16.896;2022-08-03T04:13:13;8.60;;;7.00;;
37019;SDS011;22932;52.442;16.896;2022-08-03T04:15:44;7.20;;;6.60;;
37019;SDS011;22932;52.442;16.896;2022-08-03T04:18:17;6.90;;;6.40;;
37019;SDS011;22932;52.442;16.896;2022-08-03T04:20:48;7.50;;;6.90;;
37019;SDS011;22932;52.442;16.896;2022-08-03T04:25:48;7.00;;;6.40;;
37019;SDS011;22932;52.442;16.896;2022-08-03T04:28:20;7.00;;;6.50;;
37019;SDS011;22932;52.442;16.896;2022-08-03T04:30:50;7.00;;;6.50;;
37019;SDS011;22932;52.442;16.896;2022-08-03T04:33:23;8.20;;;7.50;;
37019;SDS011;22932;52.442;16.896;2022-08-03T04:35:56;7.10;;;6.50;;
37019;SDS011;22932;52.442;16.896;2022-08-03T04:38:27;8.50;;;7.80;;
37019;SDS011;22932;52.442;16.896;2022-08-03T04:40:58;7.80;;;6.80;;
37019;SDS011;22932;52.442;16.896;2022-08-03T04:43:27;8.80;;;7.90;;
37019;SDS011;22932;52.442;16.896;2022-08-03T04:45:59;8.10;;;7.40;;
37019;SDS011;22932;52.442;16.896;2022-08-03T04:48:29;8.10;;;7.40;;
37019;SDS011;22932;52.442;16.896;2022-08-03T04:50:59;8.10;;;7.50;;
37019;SDS011;22932;52.442;16.896;2022-08-03T04:53:29;7.40;;;6.80;;
37019;SDS011;22932;52.442;16.896;2022-08-03T04:56:04;10.90;;;7.30;;
37019;SDS011;22932;52.442;16.896;2022-08-03T04:58:33;9.10;;;7.80;;
37019;SDS011;22932;52.442;16.896;2022-08-03T05:01:03;8.50;;;7.80;;
37019;SDS011;22932;52.442;16.896;2022-08-03T05:03:32;7.60;;;7.10;;
37019;SDS011;22932;52.442;16.896;2022-08-03T05:06:01;8.40;;;7.70;;
37019;SDS011;22932;52.442;16.896;2022-08-03T05:08:32;7.90;;;7.20;;
37019;SDS011;22932;52.442;16.896;2022-08-03T05:11:01;7.70;;;7.00;;
37019;SDS011;22932;52.442;16.896;2022-08-03T05:13:30;7.80;;;6.90;;
37019;SDS011;22932;52.442;16.896;2022-08-03T05:16:00;7.90;;;7.10;;
37019;SDS011;22932;52.442;16.896;2022-08-03T05:18:29;8.10;;;7.30;;
37019;SDS011;22932;52.442;16.896;2022-08-03T05:20:59;7.80;;;7.20;;
37019;SDS011;22932;52.442;16.896;2022-08-03T05:23:28;7.50;;;6.90;;
37019;SDS011;22932;52.442;16.896;2022-08-03T05:25:57;7.70;;;7.00;;
37019;SDS011;22932;52.442;16.896;2022-08-03T05:28:26;8.20;;;6.70;;
37019;SDS011;22932;52.442;16.896;2022-08-03T05:30:56;7.70;;;7.00;;
37019;SDS011;22932;52.442;16.896;2022-08-03T05:33:25;6.90;;;6.40;;
37019;SDS011;22932;52.442;16.896;2022-08-03T05:35:54;7.60;;;6.80;;
37019;SDS011;22932;52.442;16.896;2022-08-03T05:38:25;12.70;;;7.10;;
37019;SDS011;22932;52.442;16.896;2022-08-03T05:40:54;7.50;;;6.90;;
37019;SDS011;22932;52.442;16.896;2022-08-03T05:43:23;7.70;;;6.90;;
37019;SDS011;22932;52.442;16.896;2022-08-03T05:45:53;7.60;;;6.90;;
37019;SDS011;22932;52.442;16.896;2022-08-03T05:48:22;7.20;;;6.60;;
37019;SDS011;22932;52.442;16.896;2022-08-03T05:50:51;7.00;;;6.50;;
37019;SDS011;22932;52.442;16.896;2022-08-03T05:53:21;9.00;;;7.20;;
37019;SDS011;22932;52.442;16.896;2022-08-03T05:55:50;7.50;;;6.80;;
37019;SDS011;22932;52.442;16.896;2022-08-03T05:58:21;8.60;;;7.80;;
37019;SDS011;22932;52.442;16.896;2022-08-03T06:00:50;10.60;;;7.70;;
37019;SDS011;22932;52.442;16.896;2022-08-03T06:03:20;7.60;;;6.90;;
37019;SDS011;22932;52.442;16.896;2022-08-03T06:05:49;7.50;;;6.80;;
37019;SDS011;22932;52.442;16.896;2022-08-03T06:08:19;8.10;;;7.20;;
37019;SDS011;22932;52.442;16.896;2022-08-03T06:10:49;7.80;;;7.20;;
37019;SDS011;22932;52.442;16.896;2022-08-03T06:13:18;8.10;;;7.20;;
37019;SDS011;22932;52.442;16.896;2022-08-03T06:15:48;9.10;;;7.00;;
37019;SDS011;22932;52.442;16.896;2022-08-03T06:18:17;7.90;;;6.50;;
37019;SDS011;22932;52.442;16.896;2022-08-03T06:20:47;7.50;;;6.40;;
37019;SDS011;22932;52.442;16.896;2022-08-03T06:23:16;8.10;;;7.20;;
37019;SDS011;22932;52.442;16.896;2022-08-03T06:25:46;9.00;;;6.60;;
37019;SDS011;22932;52.442;16.896;2022-08-03T06:28:15;7.60;;;6.90;;
37019;SDS011;22932;52.442;16.896;2022-08-03T06:30:45;7.60;;;6.60;;
37019;SDS011;22932;52.442;16.896;2022-08-03T06:33:14;6.50;;;6.00;;
37019;SDS011;22932;52.442;16.896;2022-08-03T06:35:43;6.20;;;5.80;;
37019;SDS011;22932;52.442;16.896;2022-08-03T06:38:13;6.30;;;5.90;;
37019;SDS011;22932;52.442;16.896;2022-08-03T06:40:42;6.40;;;5.40;;
37019;SDS011;22932;52.442;16.896;2022-08-03T06:43:11;6.80;;;5.80;;
37019;SDS011;22932;52.442;16.896;2022-08-03T06:45:40;6.60;;;5.80;;
37019;SDS011;22932;52.442;16.896;2022-08-03T06:48:10;6.90;;;4.80;;
37019;SDS011;22932;52.442;16.896;2022-08-03T06:50:40;5.90;;;5.30;;
37019;SDS011;22932;52.442;16.896;2022-08-03T06:53:10;8.90;;;6.40;;
37019;SDS011;22932;52.442;16.896;2022-08-03T06:55:39;7.70;;;5.80;;
37019;SDS011;22932;52.442;16.896;2022-08-03T06:58:08;7.10;;;5.70;;
37019;SDS011;22932;52.442;16.896;2022-08-03T07:00:37;8.70;;;6.50;;
37019;SDS011;22932;52.442;16.896;2022-08-03T07:03:07;8.00;;;6.20;;
37019;SDS011;22932;52.442;16.896;2022-08-03T07:05:36;6.70;;;6.00;;
37019;SDS011;22932;52.442;16.896;2022-08-03T07:08:06;5.50;;;5.10;;
37019;SDS011;22932;52.442;16.896;2022-08-03T07:10:35;6.70;;;6.00;;
37019;SDS011;22932;52.442;16.896;2022-08-03T07:13:05;6.30;;;5.50;;
37019;SDS011;22932;52.442;16.896;2022-08-03T07:15:34;5.80;;;5.40;;
37019;SDS011;22932;52.442;16.896;2022-08-03T07:18:04;7.20;;;5.00;;
37019;SDS011;22932;52.442;16.896;2022-08-03T07:20:33;5.30;;;4.70;;
37019;SDS011;22932;52.442;16.896;2022-08-03T07:23:02;5.60;;;5.10;;
37019;SDS011;22932;52.442;16.896;2022-08-03T07:25:32;6.60;;;4.70;;
37019;SDS011;22932;52.442;16.896;2022-08-03T07:28:01;5.40;;;4.90;;
37019;SDS011;22932;52.442;16.896;2022-08-03T07:30:31;5.50;;;5.00;;
37019;SDS011;22932;52.442;16.896;2022-08-03T07:33:01;5.10;;;4.70;;
37019;SDS011;22932;52.442;16.896;2022-08-03T07:35:30;4.50;;;4.20;;
37019;SDS011;22932;52.442;16.896;2022-08-03T07:38:00;4.90;;;4.50;;
37019;SDS011;22932;52.442;16.896;2022-08-03T07:40:29;5.00;;;4.60;;
37019;SDS011;22932;52.442;16.896;2022-08-03T07:42:58;5.20;;;4.60;;
37019;SDS011;22932;52.442;16.896;2022-08-03T07:47:57;4.90;;;4.10;;
37019;SDS011;22932;52.442;16.896;2022-08-03T07:50:27;5.40;;;4.70;;
37019;SDS011;22932;52.442;16.896;2022-08-03T07:52:56;5.40;;;4.90;;
37019;SDS011;22932;52.442;16.896;2022-08-03T07:55:25;4.60;;;4.20;;
37019;SDS011;22932;52.442;16.896;2022-08-03T07:58:05;7.50;;;4.60;;
37019;SDS011;22932;52.442;16.896;2022-08-03T08:00:37;4.70;;;4.30;;
37019;SDS011;22932;52.442;16.896;2022-08-03T08:03:07;8.10;;;4.30;;
37019;SDS011;22932;52.442;16.896;2022-08-03T08:05:37;4.80;;;4.40;;
37019;SDS011;22932;52.442;16.896;2022-08-03T08:08:06;4.50;;;4.20;;
37019;SDS011;22932;52.442;16.896;2022-08-03T08:10:36;4.90;;;4.60;;
37019;SDS011;22932;52.442;16.896;2022-08-03T08:13:05;4.80;;;4.20;;
37019;SDS011;22932;52.442;16.896;2022-08-03T08:15:34;4.90;;;4.50;;
37019;SDS011;22932;52.442;16.896;2022-08-03T08:18:04;4.50;;;4.20;;
37019;SDS011;22932;52.442;16.896;2022-08-03T08:20:34;6.40;;;4.40;;
37019;SDS011;22932;52.442;16.896;2022-08-03T08:23:04;5.00;;;4.50;;
37019;SDS011;22932;52.442;16.896;2022-08-03T08:25:34;8.20;;;5.50;;
37019;SDS011;22932;52.442;16.896;2022-08-03T08:28:04;5.10;;;4.50;;
37019;SDS011;22932;52.442;16.896;2022-08-03T08:30:33;5.60;;;4.50;;
37019;SDS011;22932;52.442;16.896;2022-08-03T08:33:02;4.50;;;4.10;;
37019;SDS011;22932;52.442;16.896;2022-08-03T08:35:32;5.10;;;4.70;;
37019;SDS011;22932;52.442;16.896;2022-08-03T08:38:01;4.90;;;4.50;;
37019;SDS011;22932;52.442;16.896;2022-08-03T08:40:30;5.30;;;4.70;;
37019;SDS011;22932;52.442;16.896;2022-08-03T08:43:00;5.10;;;4.70;;
37019;SDS011;22932;52.442;16.896;2022-08-03T08:45:30;4.40;;;4.10;;
37019;SDS011;22932;52.442;16.896;2022-08-03T08:50:29;4.90;;;4.40;;
37019;SDS011;22932;52.442;16.896;2022-08-03T08:53:01;5.90;;;5.00;;
37019;SDS011;22932;52.442;16.896;2022-08-03T08:55:32;5.20;;;4.60;;
37019;SDS011;22932;52.442;16.896;2022-08-03T08:58:04;5.60;;;5.20;;
37019;SDS011;22932;52.442;16.896;2022-08-03T09:00:36;5.20;;;4.70;;
37019;SDS011;22932;52.442;16.896;2022-08-03T09:03:05;5.30;;;4.80;;
37019;SDS011;22932;52.442;16.896;2022-08-03T09:05:35;5.00;;;4.60;;
37019;SDS011;22932;52.442;16.896;2022-08-03T09:08:05;4.20;;;3.80;;
37019;SDS011;22932;52.442;16.896;2022-08-03T09:10:34;14.60;;;5.00;;
37019;SDS011;22932;52.442;16.896;2022-08-03T09:13:04;4.70;;;4.30;;
37019;SDS011;22932;52.442;16.896;2022-08-03T09:15:35;4.60;;;4.20;;
37019;SDS011;22932;52.442;16.896;2022-08-03T09:18:05;4.70;;;4.20;;
37019;SDS011;22932;52.442;16.896;2022-08-03T09:20:36;5.00;;;4.30;;
37019;SDS011;22932;52.442;16.896;2022-08-03T09:23:14;3.80;;;3.50;;
37019;SDS011;22932;52.442;16.896;2022-08-03T09:25:43;5.00;;;4.30;;
37019;SDS011;22932;52.442;16.896;2022-08-03T09:28:13;4.20;;;3.90;;
37019;SDS011;22932;52.442;16.896;2022-08-03T09:30:44;7.10;;;3.70;;
37019;SDS011;22932;52.442;16.896;2022-08-03T09:33:26;4.00;;;3.80;;
37019;SDS011;22932;52.442;16.896;2022-08-03T23:20:37;10.20;;;9.20;;
37019;SDS011;22932;52.442;16.896;2022-08-03T23:23:06;11.40;;;10.30;;
37019;SDS011;22932;52.442;16.896;2022-08-03T23:25:37;10.10;;;9.30;;
37019;SDS011;22932;52.442;16.896;2022-08-03T23:28:07;10.00;;;9.20;;
37019;SDS011;22932;52.442;16.896;2022-08-03T23:30:40;10.20;;;9.40;;
37019;SDS011;22932;52.442;16.896;2022-08-03T23:33:11;9.90;;;9.10;;
37019;SDS011;22932;52.442;16.896;2022-08-03T23:35:43;11.40;;;10.40;;
37019;SDS011;22932;52.442;16.896;2022-08-03T23:38:27;9.30;;;8.40;;
37019;SDS011;22932;52.442;16.896;2022-08-03T23:41:00;10.10;;;9.00;;
37019;SDS011;22932;52.442;16.896;2022-08-03T23:43:31;10.30;;;9.50;;
37019;SDS011;22932;52.442;16.896;2022-08-03T23:46:02;11.90;;;9.60;;
37019;SDS011;22932;52.442;16.896;2022-08-03T23:48:33;11.50;;;9.60;;
37019;SDS011;22932;52.442;16.896;2022-08-03T23:51:04;11.80;;;9.50;;
37019;SDS011;22932;52.442;16.896;2022-08-03T23:53:40;9.80;;;8.90;;
37019;SDS011;22932;52.442;16.896;2022-08-03T23:56:22;10.20;;;9.40;;
37019;SDS011;22932;52.442;16.896;2022-08-03T23:59:01;10.80;;;9.80;;
